createdAt,value
2022-08-28T00:00:09.571Z,21.10
2022-08-28T00:02:36.272Z,21.04
2022-08-28T00:05:04.442Z,20.98
2022-08-28T00:07:30.986Z,20.87
2022-08-28T00:09:57.550Z,20.89
2022-08-28T00:12:24.093Z,20.86
2022-08-28T00:14:50.679Z,20.82
2022-08-28T00:17:17.245Z,20.80
2022-08-28T00:19:43.821Z,20.79
2022-08-28T00:22:10.547Z,20.81
2022-08-28T00:24:37.094Z,20.78
2022-08-28T00:27:22.647Z,20.74
2022-08-28T00:29:49.262Z,20.75
2022-08-28T00:32:15.922Z,20.80
2022-08-28T00:34:42.455Z,20.71
2022-08-28T00:37:08.983Z,20.64
2022-08-28T00:39:35.521Z,20.62
2022-08-28T00:42:02.203Z,20.55
2022-08-28T00:44:29.083Z,20.56
2022-08-28T00:46:58.884Z,20.47
2022-08-28T00:49:32.038Z,20.45
2022-08-28T00:52:05.789Z,20.43
2022-08-28T00:54:37.200Z,20.44
2022-08-28T00:57:07.429Z,20.41
2022-08-28T00:59:34.764Z,20.35
2022-08-28T01:02:01.425Z,20.29
2022-08-28T01:04:32.222Z,20.28
2022-08-28T01:07:02.398Z,20.25
2022-08-28T01:09:31.800Z,20.26
2022-08-28T01:12:03.232Z,20.28
2022-08-28T01:14:33.891Z,20.25
2022-08-28T01:17:00.751Z,20.26
2022-08-28T01:19:38.147Z,20.31
2022-08-28T01:22:36.825Z,20.33
2022-08-28T01:25:07.267Z,20.35
2022-08-28T01:27:34.173Z,20.34
2022-08-28T01:30:00.722Z,20.35
2022-08-28T01:32:47.257Z,20.38
2022-08-28T01:35:17.031Z,20.37
2022-08-28T01:37:44.075Z,20.35
2022-08-28T01:40:13.850Z,20.37
2022-08-28T01:42:42.485Z,20.41
2022-08-28T01:45:11.057Z,20.46
2022-08-28T01:47:42.840Z,20.49
2022-08-28T01:50:13.393Z,20.47
2022-08-28T01:52:40.425Z,20.44
2022-08-28T01:55:08.471Z,20.49
2022-08-28T01:57:36.012Z,20.48
2022-08-28T02:00:02.707Z,20.51
2022-08-28T02:02:29.918Z,20.54
2022-08-28T02:04:56.452Z,20.60
2022-08-28T02:07:23.000Z,20.60
2022-08-28T02:09:49.548Z,20.57
2022-08-28T02:12:16.421Z,20.57
2022-08-28T02:14:42.981Z,20.58
2022-08-28T02:17:09.560Z,20.53
2022-08-28T02:19:36.741Z,20.50
2022-08-28T02:22:08.151Z,20.48
2022-08-28T02:24:35.746Z,20.52
2022-08-28T02:27:04.000Z,20.46
2022-08-28T02:29:30.563Z,20.39
2022-08-28T02:31:57.220Z,20.37
2022-08-28T02:34:23.843Z,20.36
2022-08-28T02:36:50.420Z,20.34
2022-08-28T02:39:16.991Z,20.33
2022-08-28T02:41:43.565Z,20.35
2022-08-28T02:44:10.319Z,20.30
2022-08-28T02:46:36.962Z,20.28
2022-08-28T02:49:03.548Z,20.31
2022-08-28T02:51:34.217Z,20.33
2022-08-28T02:54:01.460Z,20.31
2022-08-28T02:56:28.873Z,20.29
2022-08-28T02:58:55.733Z,20.28
2022-08-28T03:01:23.429Z,20.25
2022-08-28T03:03:50.078Z,20.19
2022-08-28T03:06:16.821Z,20.17
2022-08-28T03:08:44.209Z,20.16
2022-08-28T03:11:12.009Z,20.14
2022-08-28T03:13:38.703Z,20.13
2022-08-28T03:16:05.881Z,20.11
2022-08-28T03:18:33.216Z,20.06
2022-08-28T03:21:00.538Z,20.03
2022-08-28T03:23:27.275Z,20.04
2022-08-28T03:26:10.079Z,20.04
2022-08-28T03:28:41.254Z,20.01
2022-08-28T03:31:09.301Z,20.01
2022-08-28T03:33:36.054Z,19.95
2022-08-28T03:36:04.602Z,19.93
2022-08-28T03:38:31.598Z,19.88
2022-08-28T03:40:58.145Z,19.77
2022-08-28T03:43:25.572Z,19.79
2022-08-28T03:46:02.639Z,19.78
2022-08-28T03:48:33.191Z,19.71
2022-08-28T03:51:00.643Z,19.68
2022-08-28T03:53:29.701Z,19.65
2022-08-28T03:55:57.901Z,19.67
2022-08-28T03:58:25.378Z,19.68
2022-08-28T04:00:52.009Z,19.67
2022-08-28T04:03:18.967Z,19.65
2022-08-28T04:05:46.700Z,19.64
2022-08-28T04:08:16.023Z,19.61
2022-08-28T04:10:46.637Z,19.58
2022-08-28T04:13:15.184Z,19.58
2022-08-28T04:15:41.859Z,19.57
2022-08-28T04:18:09.719Z,19.52
2022-08-28T04:20:37.233Z,19.49
2022-08-28T04:23:04.474Z,19.45
2022-08-28T04:25:31.534Z,19.42
2022-08-28T04:27:58.209Z,19.41
2022-08-28T04:30:24.852Z,19.42
2022-08-28T04:32:51.389Z,19.41
2022-08-28T04:35:18.367Z,19.40
2022-08-28T04:37:44.903Z,19.40
2022-08-28T04:40:13.306Z,19.40
2022-08-28T04:42:40.220Z,19.40
2022-08-28T04:45:07.667Z,19.41
2022-08-28T04:47:38.718Z,19.46
2022-08-28T04:50:06.794Z,19.49
2022-08-28T04:52:33.533Z,19.55
2022-08-28T04:55:00.245Z,19.57
2022-08-28T04:57:26.860Z,19.64
2022-08-28T04:59:53.426Z,19.71
2022-08-28T05:02:20.086Z,19.74
2022-08-28T05:04:47.300Z,19.80
2022-08-28T05:07:14.062Z,19.79
2022-08-28T05:09:40.617Z,19.83
2022-08-28T05:12:07.287Z,19.90
2022-08-28T05:14:33.981Z,19.95
2022-08-28T05:17:00.601Z,20.04
2022-08-28T05:19:28.282Z,20.11
2022-08-28T05:21:54.957Z,20.27
2022-08-28T05:24:22.449Z,20.40
2022-08-28T05:26:49.272Z,20.41
2022-08-28T05:29:16.997Z,20.49
2022-08-28T05:31:43.722Z,20.90
2022-08-28T05:34:10.735Z,21.26
2022-08-28T05:36:38.708Z,21.45
2022-08-28T05:39:08.027Z,21.30
2022-08-28T05:41:34.923Z,21.14
2022-08-28T05:44:04.925Z,21.08
2022-08-28T05:46:32.588Z,21.05
2022-08-28T05:49:00.377Z,21.03
2022-08-28T05:51:28.125Z,21.09
2022-08-28T05:53:57.736Z,21.17
2022-08-28T05:56:31.443Z,21.76
2022-08-28T05:59:00.037Z,21.90
2022-08-28T06:01:31.826Z,22.03
2022-08-28T06:04:07.381Z,22.30
2022-08-28T06:06:35.838Z,22.64
2022-08-28T06:09:05.103Z,22.98
2022-08-28T06:11:32.722Z,23.29
2022-08-28T06:14:04.053Z,23.70
2022-08-28T06:16:32.156Z,24.57
2022-08-28T06:18:59.415Z,25.04
2022-08-28T06:21:26.311Z,25.20
2022-08-28T06:23:53.305Z,25.04
2022-08-28T06:26:19.872Z,25.54
2022-08-28T06:28:46.448Z,26.18
2022-08-28T06:31:25.069Z,26.44
2022-08-28T06:33:54.253Z,26.68
2022-08-28T06:36:21.209Z,26.70
2022-08-28T06:38:47.800Z,26.92
2022-08-28T06:41:15.528Z,27.43
2022-08-28T06:43:42.357Z,27.57
2022-08-28T06:46:09.113Z,27.79
2022-08-28T06:48:36.297Z,27.84
2022-08-28T06:51:06.708Z,27.47
2022-08-28T06:53:33.841Z,27.61
2022-08-28T06:56:07.702Z,27.52
2022-08-28T06:58:37.411Z,28.18
2022-08-28T07:01:12.516Z,28.48
2022-08-28T07:03:42.603Z,28.22
2022-08-28T07:06:13.522Z,28.58
2022-08-28T07:08:41.328Z,28.88
2022-08-28T07:11:18.536Z,28.55
2022-08-28T07:13:46.036Z,28.00
2022-08-28T07:16:17.768Z,28.09
2022-08-28T07:18:45.709Z,28.31
2022-08-28T07:21:13.595Z,28.66
2022-08-28T07:23:42.335Z,29.35
2022-08-28T07:26:12.316Z,29.40
2022-08-28T07:28:38.866Z,29.93
2022-08-28T07:31:09.857Z,30.88
2022-08-28T07:33:38.044Z,30.34
2022-08-28T07:36:07.745Z,30.37
2022-08-28T07:38:34.487Z,30.41
2022-08-28T07:41:02.236Z,29.20
2022-08-28T07:43:47.477Z,30.41
2022-08-28T07:46:14.204Z,30.58
2022-08-28T07:48:41.598Z,30.19
2022-08-28T07:51:09.633Z,29.13
2022-08-28T07:53:37.429Z,29.64
2022-08-28T07:56:05.096Z,28.36
2022-08-28T07:58:32.083Z,28.96
2022-08-28T08:00:59.099Z,29.96
2022-08-28T08:03:25.800Z,30.05
2022-08-28T08:05:57.846Z,30.99
2022-08-28T08:08:24.953Z,31.80
2022-08-28T08:10:57.444Z,31.70
2022-08-28T08:13:24.079Z,31.38
2022-08-28T08:15:50.707Z,31.23
2022-08-28T08:18:17.399Z,31.53
2022-08-28T08:20:47.736Z,30.87
2022-08-28T08:23:15.430Z,30.83
2022-08-28T08:25:41.988Z,30.62
2022-08-28T08:28:08.673Z,31.90
2022-08-28T08:30:36.336Z,32.38
2022-08-28T08:33:02.865Z,31.99
2022-08-28T08:35:29.418Z,31.94
2022-08-28T08:37:57.180Z,31.99
2022-08-28T08:40:26.192Z,31.04
2022-08-28T08:42:56.993Z,31.40
2022-08-28T08:45:26.582Z,31.57
2022-08-28T08:47:55.965Z,32.50
2022-08-28T08:50:29.319Z,31.09
2022-08-28T08:53:20.087Z,32.60
2022-08-28T08:55:50.666Z,33.57
2022-08-28T08:58:24.447Z,33.50
2022-08-28T09:01:15.237Z,34.61
2022-08-28T09:03:55.255Z,34.29
2022-08-28T09:06:47.976Z,33.81
2022-08-28T09:09:21.487Z,32.58
2022-08-28T09:12:06.004Z,33.67
2022-08-28T09:14:38.442Z,34.52
2022-08-28T09:17:07.322Z,34.42
2022-08-28T09:19:34.310Z,34.91
2022-08-28T09:22:01.469Z,34.37
2022-08-28T09:24:33.853Z,33.71
2022-08-28T09:27:02.319Z,34.50
2022-08-28T09:29:35.547Z,33.91
2022-08-28T09:32:23.112Z,33.21
2022-08-28T09:34:58.713Z,33.72
2022-08-28T09:37:27.130Z,34.20
2022-08-28T09:40:18.190Z,33.65
2022-08-28T09:43:25.432Z,33.61
2022-08-28T09:45:58.292Z,34.82
2022-08-28T09:48:30.982Z,33.53
2022-08-28T09:51:03.597Z,32.28
2022-08-28T09:53:33.272Z,32.95
2022-08-28T09:56:13.205Z,31.94
2022-08-28T09:58:55.837Z,32.44
2022-08-28T10:01:40.956Z,31.77
2022-08-28T10:04:17.994Z,31.80
2022-08-28T10:06:51.314Z,32.71
2022-08-28T10:09:57.376Z,31.88
2022-08-28T10:12:26.949Z,32.16
2022-08-28T10:15:25.564Z,32.32
2022-08-28T10:18:10.688Z,32.14
2022-08-28T10:20:37.172Z,31.14
2022-08-28T10:23:15.644Z,30.52
2022-08-28T10:25:57.671Z,30.39
2022-08-28T10:28:35.138Z,31.04
2022-08-28T10:31:41.212Z,30.95
2022-08-28T10:34:43.561Z,31.54
2022-08-28T10:37:30.214Z,31.47
2022-08-28T10:39:59.953Z,31.18
2022-08-28T10:42:36.679Z,31.58
2022-08-28T10:45:18.747Z,30.96
2022-08-28T10:47:51.335Z,30.51
2022-08-28T10:50:24.789Z,30.43
2022-08-28T10:53:00.338Z,30.10
2022-08-28T10:55:34.680Z,30.55
2022-08-28T10:58:24.321Z,30.76
2022-08-28T11:00:56.037Z,30.88
2022-08-28T11:03:34.513Z,31.42
2022-08-28T11:06:11.496Z,30.76
2022-08-28T11:08:39.865Z,30.43
2022-08-28T11:11:13.500Z,30.84
2022-08-28T11:13:44.064Z,29.95
2022-08-28T11:16:24.726Z,30.29
2022-08-28T11:19:24.016Z,30.54
2022-08-28T11:21:54.288Z,30.36
2022-08-28T11:24:44.095Z,30.32
2022-08-28T11:27:24.281Z,30.44
2022-08-28T11:30:02.682Z,30.96
2022-08-28T11:32:32.637Z,31.21
2022-08-28T11:35:03.201Z,30.86
2022-08-28T11:37:59.298Z,29.66
2022-08-28T11:40:28.678Z,30.36
2022-08-28T11:43:16.828Z,30.83
2022-08-28T11:45:46.620Z,30.15
2022-08-28T11:48:23.090Z,30.69
2022-08-28T11:50:52.351Z,30.60
2022-08-28T11:53:39.690Z,31.28
2022-08-28T11:56:31.165Z,31.74
2022-08-28T11:59:08.107Z,31.91
2022-08-28T12:01:37.064Z,31.87
2022-08-28T12:04:09.661Z,31.77
2022-08-28T12:06:45.284Z,32.14
2022-08-28T12:09:33.463Z,31.52
2022-08-28T12:12:03.613Z,31.27
2022-08-28T12:14:30.157Z,30.91
2022-08-28T12:16:59.464Z,30.88
2022-08-28T12:19:49.964Z,31.49
2022-08-28T12:22:26.398Z,31.80
2022-08-28T12:24:57.973Z,31.83
2022-08-28T12:27:25.868Z,31.02
2022-08-28T12:29:57.646Z,31.09
2022-08-28T12:32:48.019Z,31.36
2022-08-28T12:35:18.991Z,31.69
2022-08-28T12:37:51.870Z,31.90
2022-08-28T12:40:28.240Z,32.02
2022-08-28T12:43:03.875Z,31.85
2022-08-28T12:45:42.734Z,31.38
2022-08-28T12:48:18.332Z,31.81
2022-08-28T12:50:45.172Z,31.93
2022-08-28T12:53:17.564Z,31.84
2022-08-28T12:55:46.606Z,32.01
2022-08-28T12:58:27.055Z,32.08
2022-08-28T13:00:58.319Z,32.22
2022-08-28T13:03:25.735Z,32.04
2022-08-28T13:06:14.629Z,31.66
2022-08-28T13:08:41.400Z,31.92
2022-08-28T13:11:08.237Z,32.02
2022-08-28T13:13:40.063Z,32.05
2022-08-28T13:16:12.691Z,31.06
2022-08-28T13:19:06.338Z,31.55
2022-08-28T13:21:38.645Z,31.38
2022-08-28T13:24:35.713Z,30.98
2022-08-28T13:27:14.397Z,30.96
2022-08-28T13:29:55.695Z,31.11
2022-08-28T13:32:26.979Z,30.74
2022-08-28T13:35:21.642Z,31.27
2022-08-28T13:37:54.871Z,30.75
2022-08-28T13:40:56.794Z,30.71
2022-08-28T13:43:26.992Z,30.83
2022-08-28T13:45:54.108Z,30.59
2022-08-28T13:48:25.720Z,31.04
2022-08-28T13:51:10.475Z,31.37
2022-08-28T13:53:38.503Z,31.27
2022-08-28T13:56:05.276Z,31.37
2022-08-28T13:58:32.211Z,31.35
2022-08-28T14:01:00.767Z,31.47
2022-08-28T14:03:36.546Z,31.67
2022-08-28T14:06:16.797Z,31.88
2022-08-28T14:08:45.295Z,31.94
2022-08-28T14:11:13.607Z,32.05
2022-08-28T14:13:47.360Z,31.75
2022-08-28T14:16:21.904Z,31.52
2022-08-28T14:18:48.452Z,31.43
2022-08-28T14:21:15.046Z,31.21
2022-08-28T14:23:41.764Z,31.07
2022-08-28T14:26:08.313Z,31.12
2022-08-28T14:28:34.943Z,31.48
2022-08-28T14:31:05.674Z,31.53
2022-08-28T14:33:34.369Z,31.77
2022-08-28T14:36:03.756Z,31.76
2022-08-28T14:38:30.648Z,31.77
2022-08-28T14:40:57.353Z,31.90
2022-08-28T14:43:24.073Z,31.88
2022-08-28T14:45:50.793Z,31.84
2022-08-28T14:48:18.779Z,31.94
2022-08-28T14:50:48.179Z,32.05
2022-08-28T14:53:15.849Z,31.93
2022-08-28T14:55:48.525Z,32.12
2022-08-28T14:58:18.188Z,32.08
2022-08-28T15:00:47.892Z,32.12
2022-08-28T15:03:15.255Z,32.03
2022-08-28T15:05:42.558Z,31.35
2022-08-28T15:08:11.150Z,30.72
2022-08-28T15:10:39.168Z,30.83
2022-08-28T15:13:07.801Z,30.82
2022-08-28T15:15:39.237Z,30.87
2022-08-28T15:18:06.844Z,30.57
2022-08-28T15:20:41.656Z,30.71
2022-08-28T15:23:09.324Z,30.19
2022-08-28T15:25:35.878Z,30.41
2022-08-28T15:28:02.688Z,30.38
2022-08-28T15:30:29.254Z,30.74
2022-08-28T15:32:55.801Z,30.93
2022-08-28T15:35:22.404Z,30.76
2022-08-28T15:37:49.046Z,30.57
2022-08-28T15:40:34.459Z,30.40
2022-08-28T15:43:01.155Z,30.60
2022-08-28T15:45:27.817Z,30.46
2022-08-28T15:47:54.444Z,30.35
2022-08-28T15:50:21.190Z,30.34
2022-08-28T15:52:48.506Z,30.33
2022-08-28T15:55:15.532Z,30.18
2022-08-28T15:57:42.118Z,30.17
2022-08-28T16:00:10.478Z,30.10
2022-08-28T16:02:37.484Z,30.21
2022-08-28T16:05:04.631Z,30.22
2022-08-28T16:07:31.148Z,30.22
2022-08-28T16:09:57.748Z,30.20
2022-08-28T16:12:25.468Z,30.24
2022-08-28T16:14:52.030Z,30.22
2022-08-28T16:17:18.969Z,30.18
2022-08-28T16:19:46.562Z,30.21
2022-08-28T16:22:15.895Z,30.18
2022-08-28T16:24:43.364Z,30.09
2022-08-28T16:27:14.679Z,30.06
2022-08-28T16:29:42.631Z,29.99
2022-08-28T16:32:09.497Z,29.97
2022-08-28T16:34:38.523Z,29.99
2022-08-28T16:37:08.033Z,29.96
2022-08-28T16:39:35.328Z,29.95
2022-08-28T16:42:02.035Z,29.89
2022-08-28T16:44:28.639Z,29.86
2022-08-28T16:46:55.855Z,29.84
2022-08-28T16:49:23.744Z,29.79
2022-08-28T16:51:50.637Z,29.77
2022-08-28T16:54:18.243Z,29.75
2022-08-28T16:56:45.829Z,29.76
2022-08-28T16:59:16.357Z,29.72
2022-08-28T17:01:43.090Z,29.65
2022-08-28T17:04:10.234Z,29.65
2022-08-28T17:06:37.112Z,29.65
2022-08-28T17:09:04.162Z,29.55
2022-08-28T17:11:31.932Z,29.52
2022-08-28T17:13:58.701Z,29.54
2022-08-28T17:16:31.411Z,29.46
2022-08-28T17:18:59.621Z,29.39
2022-08-28T17:21:44.627Z,29.38
2022-08-28T17:24:12.619Z,29.27
2022-08-28T17:26:39.607Z,29.26
2022-08-28T17:29:06.362Z,29.13
2022-08-28T17:31:33.041Z,29.18
2022-08-28T17:33:59.641Z,29.06
2022-08-28T17:36:33.791Z,29.10
2022-08-28T17:39:09.390Z,29.08
2022-08-28T17:41:36.778Z,28.96
2022-08-28T17:44:04.995Z,28.86
2022-08-28T17:46:37.425Z,28.90
2022-08-28T17:49:06.377Z,28.85
2022-08-28T17:51:42.802Z,28.76
2022-08-28T17:54:16.250Z,28.61
2022-08-28T17:56:42.902Z,28.47
2022-08-28T17:59:10.316Z,28.29
2022-08-28T18:01:38.365Z,28.15
2022-08-28T18:04:05.674Z,28.02
2022-08-28T18:06:32.903Z,27.92
2022-08-28T18:09:00.413Z,27.87
2022-08-28T18:11:27.484Z,27.84
2022-08-28T18:13:54.472Z,27.68
2022-08-28T18:16:21.596Z,27.68
2022-08-28T18:18:48.467Z,27.55
2022-08-28T18:21:15.192Z,27.41
2022-08-28T18:23:42.001Z,27.37
2022-08-28T18:26:09.148Z,27.30
2022-08-28T18:28:36.669Z,27.23
2022-08-28T18:31:06.605Z,27.21
2022-08-28T18:33:34.224Z,27.15
2022-08-28T18:36:00.774Z,27.11
2022-08-28T18:38:28.613Z,27.12
2022-08-28T18:40:56.068Z,27.11
2022-08-28T18:43:23.010Z,27.06
2022-08-28T18:45:49.855Z,27.03
2022-08-28T18:48:16.552Z,27.07
2022-08-28T18:50:46.283Z,27.01
2022-08-28T18:53:17.548Z,26.80
2022-08-28T18:55:45.760Z,26.87
2022-08-28T18:58:14.946Z,26.70
2022-08-28T19:00:42.325Z,26.60
2022-08-28T19:03:09.301Z,26.52
2022-08-28T19:05:37.880Z,26.39
2022-08-28T19:08:05.159Z,26.38
2022-08-28T19:10:34.330Z,26.26
2022-08-28T19:13:02.443Z,26.28
2022-08-28T19:15:30.265Z,26.21
2022-08-28T19:17:58.081Z,26.23
2022-08-28T19:20:26.477Z,26.20
2022-08-28T19:22:53.244Z,26.19
2022-08-28T19:25:28.535Z,26.11
2022-08-28T19:27:58.802Z,26.07
2022-08-28T19:30:27.846Z,25.97
2022-08-28T19:32:54.874Z,25.91
2022-08-28T19:35:24.119Z,25.76
2022-08-28T19:37:51.890Z,25.64
2022-08-28T19:40:18.732Z,25.59
2022-08-28T19:42:45.751Z,25.59
2022-08-28T19:45:15.047Z,25.64
2022-08-28T19:47:42.049Z,25.46
2022-08-28T19:50:11.346Z,25.45
2022-08-28T19:52:38.630Z,25.41
2022-08-28T19:55:06.607Z,25.56
2022-08-28T19:57:34.249Z,25.76
2022-08-28T20:00:00.913Z,25.83
2022-08-28T20:02:28.741Z,25.85
2022-08-28T20:04:55.468Z,25.84
2022-08-28T20:07:22.353Z,25.84
2022-08-28T20:09:48.982Z,25.78
2022-08-28T20:12:16.065Z,25.82
2022-08-28T20:14:42.712Z,25.74
2022-08-28T20:17:09.554Z,25.74
2022-08-28T20:19:36.287Z,25.77
2022-08-28T20:22:03.868Z,25.73
2022-08-28T20:24:30.419Z,25.67
2022-08-28T20:26:58.990Z,25.67
2022-08-28T20:29:25.699Z,25.67
2022-08-28T20:31:52.836Z,25.72
2022-08-28T20:34:21.025Z,25.67
2022-08-28T20:36:48.165Z,25.64
2022-08-28T20:39:15.527Z,25.48
2022-08-28T20:41:44.304Z,25.48
2022-08-28T20:44:13.626Z,25.46
2022-08-28T20:46:42.086Z,25.22
2022-08-28T20:49:10.358Z,25.02
2022-08-28T20:51:55.735Z,24.98
2022-08-28T20:54:26.471Z,25.01
2022-08-28T20:56:54.122Z,24.79
2022-08-28T20:59:21.620Z,24.72
2022-08-28T21:01:51.592Z,24.55
2022-08-28T21:04:18.818Z,24.33
2022-08-28T21:06:46.668Z,24.19
2022-08-28T21:09:17.539Z,24.31
2022-08-28T21:11:44.888Z,24.35
2022-08-28T21:14:12.155Z,24.37
2022-08-28T21:16:40.704Z,24.45
2022-08-28T21:19:16.672Z,24.52
2022-08-28T21:21:44.277Z,24.66
2022-08-28T21:24:13.883Z,24.80
2022-08-28T21:26:43.191Z,24.90
2022-08-28T21:29:13.029Z,25.06
2022-08-28T21:31:43.759Z,25.14
2022-08-28T21:34:11.526Z,25.23
2022-08-28T21:36:46.897Z,25.22
2022-08-28T21:39:17.219Z,25.14
2022-08-28T21:41:43.886Z,25.12
2022-08-28T21:44:10.600Z,25.10
2022-08-28T21:46:37.172Z,25.07
2022-08-28T21:49:03.961Z,25.06
2022-08-28T21:51:32.806Z,25.09
2022-08-28T21:53:59.370Z,25.09
2022-08-28T21:56:27.778Z,25.08
2022-08-28T21:58:57.398Z,25.07
2022-08-28T22:01:26.543Z,24.91
2022-08-28T22:03:55.015Z,24.90
2022-08-28T22:06:22.162Z,24.78
2022-08-28T22:08:50.822Z,24.70
2022-08-28T22:11:21.021Z,24.50
2022-08-28T22:13:51.601Z,24.42
2022-08-28T22:16:18.573Z,24.35
2022-08-28T22:18:45.178Z,24.31
2022-08-28T22:21:37.233Z,24.33
2022-08-28T22:24:04.594Z,24.29
2022-08-28T22:26:31.157Z,24.30
2022-08-28T22:28:58.092Z,24.34
2022-08-28T22:31:24.867Z,24.34
2022-08-28T22:33:52.161Z,24.29
2022-08-28T22:36:20.020Z,24.13
2022-08-28T22:38:53.002Z,23.99
2022-08-28T22:41:20.754Z,23.96
2022-08-28T22:43:48.285Z,23.93
2022-08-28T22:46:17.234Z,24.01
2022-08-28T22:48:43.862Z,23.98
2022-08-28T22:51:13.141Z,23.92
2022-08-28T22:53:41.199Z,23.79
2022-08-28T22:56:08.710Z,23.81
2022-08-28T22:58:35.325Z,23.83
2022-08-28T23:01:06.828Z,23.85
2022-08-28T23:03:33.563Z,23.52
2022-08-28T23:06:00.181Z,23.45
2022-08-28T23:08:29.683Z,23.43
2022-08-28T23:11:00.000Z,23.39
2022-08-28T23:13:27.223Z,23.34
2022-08-28T23:15:54.007Z,23.34
2022-08-28T23:18:21.090Z,23.25
2022-08-28T23:20:47.739Z,23.15
2022-08-28T23:23:17.357Z,23.11
2022-08-28T23:25:43.935Z,23.04
2022-08-28T23:28:10.741Z,22.99
2022-08-28T23:30:38.950Z,22.81
2022-08-28T23:33:08.582Z,22.72
2022-08-28T23:35:35.593Z,22.78
2022-08-28T23:38:02.180Z,22.85
2022-08-28T23:40:30.384Z,22.84
2022-08-28T23:42:58.028Z,22.86
2022-08-28T23:45:26.360Z,22.86
2022-08-28T23:47:54.023Z,22.92
2022-08-28T23:50:22.398Z,22.99
2022-08-28T23:52:49.585Z,23.02
2022-08-28T23:55:18.701Z,22.96
2022-08-28T23:57:45.866Z,22.81
